createdAt,value
2023-01-30T00:00:55.089Z,58.67
2023-01-30T00:03:22.915Z,58.57
2023-01-30T00:05:50.647Z,58.63
2023-01-30T00:08:18.513Z,58.96
2023-01-30T00:10:47.567Z,58.92
2023-01-30T00:13:16.541Z,58.72
2023-01-30T00:15:44.256Z,59.06
2023-01-30T00:18:12.080Z,58.94
2023-01-30T00:20:39.740Z,58.74
2023-01-30T00:23:07.524Z,59.51
2023-01-30T00:25:35.305Z,59.37
2023-01-30T00:28:04.457Z,59.45
2023-01-30T00:30:32.234Z,59.30
2023-01-30T00:33:00.173Z,59.24
2023-01-30T00:35:31.364Z,59.16
2023-01-30T00:37:59.451Z,59.46
2023-01-30T00:40:27.665Z,59.49
2023-01-30T00:43:12.830Z,59.06
2023-01-30T00:46:00.085Z,59.39
2023-01-30T00:48:27.875Z,59.29
2023-01-30T00:50:55.608Z,59.20
2023-01-30T00:53:23.314Z,59.21
2023-01-30T00:55:51.905Z,59.32
2023-01-30T00:58:19.640Z,59.25
2023-01-30T01:00:48.773Z,59.78
2023-01-30T01:03:16.529Z,59.18
2023-01-30T01:05:44.406Z,59.52
2023-01-30T01:10:46.175Z,59.49
2023-01-30T01:13:13.883Z,59.37
2023-01-30T01:15:41.663Z,59.69
2023-01-30T01:18:10.705Z,59.45
2023-01-30T01:20:38.454Z,59.32
2023-01-30T01:23:06.128Z,59.39
2023-01-30T01:25:33.993Z,59.45
2023-01-30T01:28:01.688Z,60.22
2023-01-30T01:30:29.525Z,59.86
2023-01-30T01:32:57.819Z,59.56
2023-01-30T01:35:27.078Z,59.98
2023-01-30T01:37:55.405Z,59.81
2023-01-30T01:40:41.081Z,59.51
2023-01-30T01:43:16.944Z,59.69
2023-01-30T01:45:44.930Z,60.16
2023-01-30T01:48:14.021Z,60.03
2023-01-30T01:50:44.900Z,60.51
2023-01-30T01:53:12.735Z,60.51
2023-01-30T01:55:40.567Z,60.52
2023-01-30T01:58:09.721Z,60.58
2023-01-30T02:00:37.526Z,60.48
2023-01-30T02:03:07.723Z,60.47
2023-01-30T02:05:36.484Z,60.71
2023-01-30T02:08:06.764Z,60.41
2023-01-30T02:10:38.783Z,60.06
2023-01-30T02:13:06.659Z,59.92
2023-01-30T02:15:34.464Z,60.17
2023-01-30T02:18:02.320Z,60.13
2023-01-30T02:20:33.219Z,60.66
2023-01-30T02:23:28.721Z,59.99
2023-01-30T02:26:22.168Z,60.16
2023-01-30T02:29:00.679Z,60.22
2023-01-30T02:31:33.417Z,60.65
2023-01-30T02:34:15.227Z,60.11
2023-01-30T02:36:50.354Z,60.04
2023-01-30T02:39:22.072Z,60.18
2023-01-30T02:41:52.694Z,60.31
2023-01-30T02:44:25.693Z,60.63
2023-01-30T02:46:56.606Z,60.36
2023-01-30T02:49:25.199Z,60.25
2023-01-30T02:51:52.987Z,60.17
2023-01-30T02:54:20.635Z,60.83
2023-01-30T02:56:49.915Z,60.54
2023-01-30T02:59:18.782Z,60.35
2023-01-30T03:01:59.373Z,60.70
2023-01-30T03:04:32.639Z,60.06
2023-01-30T03:07:07.415Z,60.73
2023-01-30T03:09:39.345Z,60.79
2023-01-30T03:12:08.858Z,60.42
2023-01-30T03:14:39.449Z,60.68
2023-01-30T03:17:08.572Z,60.92
2023-01-30T03:19:36.359Z,61.01
2023-01-30T03:22:04.018Z,60.49
2023-01-30T03:24:31.860Z,60.43
2023-01-30T03:27:02.108Z,60.82
2023-01-30T03:29:29.883Z,60.70
2023-01-30T03:31:57.564Z,60.04
2023-01-30T03:34:26.780Z,60.10
2023-01-30T03:36:54.466Z,60.21
2023-01-30T03:39:22.283Z,60.50
2023-01-30T03:41:49.931Z,60.89
2023-01-30T03:44:17.728Z,60.74
2023-01-30T03:46:45.819Z,60.91
2023-01-30T03:49:14.032Z,60.48
2023-01-30T03:51:43.226Z,60.35
2023-01-30T03:54:11.008Z,61.08
2023-01-30T03:56:38.659Z,60.77
2023-01-30T03:59:06.532Z,60.71
2023-01-30T04:01:34.324Z,60.62
2023-01-30T04:04:02.098Z,60.29
2023-01-30T04:06:30.224Z,61.23
2023-01-30T04:08:59.538Z,60.43
2023-01-30T04:11:27.331Z,60.83
2023-01-30T04:13:54.998Z,60.58
2023-01-30T04:16:23.757Z,61.08
2023-01-30T04:18:51.460Z,60.17
2023-01-30T04:21:19.443Z,61.42
2023-01-30T04:23:47.289Z,61.54
2023-01-30T04:26:16.447Z,60.72
2023-01-30T04:28:44.996Z,61.65
2023-01-30T04:31:12.912Z,61.41
2023-01-30T04:33:40.846Z,60.69
2023-01-30T04:36:09.809Z,60.95
2023-01-30T04:38:37.661Z,61.12
2023-01-30T04:41:05.763Z,61.16
2023-01-30T04:43:34.965Z,61.55
2023-01-30T04:46:02.621Z,60.91
2023-01-30T04:48:30.505Z,60.98
2023-01-30T04:50:58.145Z,61.25
2023-01-30T04:53:26.096Z,61.21
2023-01-30T04:55:53.757Z,61.79
2023-01-30T04:58:21.471Z,62.03
2023-01-30T05:00:50.666Z,61.04
2023-01-30T05:03:18.505Z,62.26
2023-01-30T05:05:47.471Z,61.73
2023-01-30T05:08:15.397Z,61.89
2023-01-30T05:10:43.098Z,62.04
2023-01-30T05:13:10.943Z,62.22
2023-01-30T05:15:38.669Z,61.25
2023-01-30T05:18:07.946Z,61.90
2023-01-30T05:20:35.632Z,61.87
2023-01-30T05:23:03.408Z,61.91
2023-01-30T05:25:31.194Z,61.80
2023-01-30T05:27:59.007Z,62.23
2023-01-30T05:30:26.676Z,61.62
2023-01-30T05:32:54.522Z,62.04
2023-01-30T05:35:23.579Z,62.25
2023-01-30T05:37:51.701Z,62.00
2023-01-30T05:40:19.518Z,62.00
2023-01-30T05:42:47.200Z,62.26
2023-01-30T05:45:15.063Z,62.34
2023-01-30T05:47:42.698Z,61.68
2023-01-30T05:50:12.187Z,62.13
2023-01-30T05:52:41.320Z,62.36
2023-01-30T05:55:10.109Z,62.51
2023-01-30T05:57:37.744Z,61.69
2023-01-30T06:00:06.587Z,62.26
2023-01-30T06:02:34.301Z,62.97
2023-01-30T06:05:02.111Z,62.90
2023-01-30T06:07:29.793Z,62.38
2023-01-30T06:09:59.073Z,62.69
2023-01-30T06:12:26.959Z,62.15
2023-01-30T06:14:54.622Z,63.21
2023-01-30T06:17:22.405Z,63.13
2023-01-30T06:19:50.082Z,62.96
2023-01-30T06:22:17.913Z,62.18
2023-01-30T06:24:45.571Z,62.94
2023-01-30T06:27:14.828Z,62.80
2023-01-30T06:29:42.523Z,63.06
2023-01-30T06:32:10.708Z,62.85
2023-01-30T06:34:38.358Z,62.97
2023-01-30T06:37:06.167Z,62.73
2023-01-30T06:39:33.925Z,63.20
2023-01-30T06:42:02.827Z,62.83
2023-01-30T06:44:32.075Z,62.44
2023-01-30T06:46:59.906Z,62.43
2023-01-30T06:49:27.969Z,62.42
2023-01-30T06:51:55.709Z,62.67
2023-01-30T06:54:23.686Z,62.77
2023-01-30T06:56:51.525Z,63.24
2023-01-30T06:59:19.447Z,61.92
2023-01-30T07:01:48.766Z,62.63
2023-01-30T07:04:16.915Z,62.56
2023-01-30T07:06:46.159Z,62.01
2023-01-30T07:11:41.722Z,62.56
2023-01-30T07:14:10.314Z,63.11
2023-01-30T07:16:38.349Z,63.50
2023-01-30T07:19:07.451Z,63.24
2023-01-30T07:21:36.241Z,62.92
2023-01-30T07:24:03.904Z,62.39
2023-01-30T07:26:31.671Z,62.31
2023-01-30T07:28:59.683Z,62.78
2023-01-30T07:31:27.471Z,62.49
2023-01-30T07:33:55.306Z,62.54
2023-01-30T07:36:26.989Z,63.26
2023-01-30T07:38:55.144Z,62.52
2023-01-30T07:41:22.915Z,61.66
2023-01-30T07:43:53.221Z,62.43
2023-01-30T07:46:20.902Z,63.03
2023-01-30T07:48:48.534Z,62.53
2023-01-30T07:51:16.351Z,62.85
2023-01-30T07:53:45.430Z,62.40
2023-01-30T07:56:18.358Z,62.75
2023-01-30T07:58:46.030Z,61.60
2023-01-30T08:01:14.003Z,62.03
2023-01-30T08:03:43.667Z,62.17
2023-01-30T08:06:12.437Z,62.55
2023-01-30T08:08:40.124Z,61.82
2023-01-30T08:11:09.179Z,61.24
2023-01-30T08:13:36.963Z,61.47
2023-01-30T08:16:06.013Z,61.20
2023-01-30T08:18:34.015Z,61.46
2023-01-30T08:21:01.875Z,61.04
2023-01-30T08:23:29.720Z,61.07
2023-01-30T08:25:57.422Z,61.07
2023-01-30T08:28:26.968Z,60.99
2023-01-30T08:30:55.392Z,60.80
2023-01-30T08:33:23.301Z,61.21
2023-01-30T08:35:56.979Z,61.11
2023-01-30T08:38:24.654Z,60.89
2023-01-30T08:40:52.386Z,60.69
2023-01-30T08:43:20.145Z,60.05
2023-01-30T08:45:49.326Z,60.12
2023-01-30T08:48:17.041Z,60.36
2023-01-30T08:50:44.782Z,60.19
2023-01-30T08:53:12.476Z,60.06
2023-01-30T08:55:40.244Z,59.49
2023-01-30T08:58:07.942Z,60.41
2023-01-30T09:00:35.771Z,59.82
2023-01-30T09:03:07.351Z,60.17
2023-01-30T09:05:35.097Z,59.64
2023-01-30T09:08:03.625Z,58.68
2023-01-30T09:10:31.371Z,58.58
2023-01-30T09:12:59.062Z,58.38
2023-01-30T09:15:27.947Z,58.33
2023-01-30T09:17:55.610Z,58.06
2023-01-30T09:20:25.668Z,58.13
2023-01-30T09:22:53.767Z,58.40
2023-01-30T09:25:21.463Z,57.56
2023-01-30T09:27:50.304Z,58.11
2023-01-30T09:30:20.203Z,57.42
2023-01-30T09:32:49.207Z,57.32
2023-01-30T09:35:17.063Z,56.41
2023-01-30T09:37:49.621Z,57.00
2023-01-30T09:40:17.985Z,56.43
2023-01-30T09:43:07.049Z,55.52
2023-01-30T09:45:42.569Z,55.74
2023-01-30T09:48:18.257Z,55.50
2023-01-30T09:50:58.249Z,55.67
2023-01-30T09:53:32.631Z,55.50
2023-01-30T09:56:01.649Z,55.35
2023-01-30T09:58:33.904Z,55.70
2023-01-30T10:01:04.723Z,54.62
2023-01-30T10:03:36.538Z,55.02
2023-01-30T10:06:07.122Z,54.79
2023-01-30T10:08:50.181Z,54.09
2023-01-30T10:11:34.892Z,54.36
2023-01-30T10:14:26.736Z,53.94
2023-01-30T10:16:58.814Z,54.74
2023-01-30T10:19:51.210Z,54.39
2023-01-30T10:22:26.186Z,54.17
2023-01-30T10:25:00.293Z,53.83
2023-01-30T10:27:28.802Z,53.79
2023-01-30T10:29:57.643Z,53.80
2023-01-30T10:32:28.887Z,54.16
2023-01-30T10:34:58.624Z,54.13
2023-01-30T10:37:29.177Z,54.15
2023-01-30T10:40:01.634Z,53.85
2023-01-30T10:42:30.655Z,53.85
2023-01-30T10:45:01.849Z,53.40
2023-01-30T10:47:46.773Z,53.02
2023-01-30T10:50:18.207Z,53.54
2023-01-30T10:52:50.877Z,52.52
2023-01-30T10:55:36.278Z,53.32
2023-01-30T10:58:09.604Z,53.11
2023-01-30T11:00:39.467Z,51.97
2023-01-30T11:03:21.495Z,51.87
2023-01-30T11:05:51.091Z,52.09
2023-01-30T11:08:21.757Z,51.43
2023-01-30T11:10:50.984Z,52.19
2023-01-30T11:13:20.929Z,51.84
2023-01-30T11:15:50.971Z,51.71
2023-01-30T11:19:11.319Z,51.44
2023-01-30T11:21:09.621Z,51.57
2023-01-30T11:23:41.623Z,51.21
2023-01-30T11:26:18.251Z,51.37
2023-01-30T11:28:48.493Z,50.89
2023-01-30T11:31:28.200Z,50.44
2023-01-30T11:34:05.135Z,50.41
2023-01-30T11:36:33.722Z,50.09
2023-01-30T11:39:02.946Z,50.81
2023-01-30T11:41:32.277Z,50.34
2023-01-30T11:44:04.055Z,50.43
2023-01-30T11:46:33.493Z,50.30
2023-01-30T11:49:44.076Z,50.39
2023-01-30T11:51:50.186Z,50.10
2023-01-30T11:54:19.818Z,50.13
2023-01-30T11:56:50.780Z,50.39
2023-01-30T11:59:26.594Z,50.35
2023-01-30T12:01:54.386Z,49.27
2023-01-30T12:04:24.145Z,49.45
2023-01-30T12:06:51.857Z,49.03
2023-01-30T12:09:39.962Z,49.29
2023-01-30T12:12:34.350Z,49.00
2023-01-30T12:15:21.286Z,49.20
2023-01-30T12:17:52.259Z,49.20
2023-01-30T12:20:24.628Z,48.89
2023-01-30T12:22:57.118Z,49.45
2023-01-30T12:25:26.705Z,48.94
2023-01-30T12:30:30.616Z,49.16
2023-01-30T12:35:38.231Z,49.29
2023-01-30T12:38:09.202Z,48.88
2023-01-30T12:40:45.984Z,48.74
2023-01-30T12:43:29.544Z,48.74
2023-01-30T12:46:04.823Z,48.29
2023-01-30T12:48:48.260Z,48.43
2023-01-30T12:51:23.284Z,48.60
2023-01-30T12:53:57.037Z,48.23
2023-01-30T12:56:33.458Z,47.63
2023-01-30T12:59:04.721Z,47.79
2023-01-30T13:01:35.333Z,47.68
2023-01-30T13:04:06.250Z,47.20
2023-01-30T13:06:46.799Z,47.01
2023-01-30T13:09:21.377Z,47.35
2023-01-30T13:11:54.492Z,47.23
2023-01-30T13:14:27.841Z,47.62
2023-01-30T13:17:03.982Z,47.05
2023-01-30T13:19:40.796Z,47.00
2023-01-30T13:22:11.182Z,46.62
2023-01-30T13:24:44.714Z,46.48
2023-01-30T13:27:16.420Z,46.63
2023-01-30T13:29:47.174Z,46.74
2023-01-30T13:32:17.095Z,46.14
2023-01-30T13:34:46.183Z,46.06
2023-01-30T13:37:14.868Z,45.85
2023-01-30T13:39:45.037Z,46.24
2023-01-30T13:42:19.512Z,46.10
2023-01-30T13:44:49.532Z,46.26
2023-01-30T13:47:24.613Z,45.72
2023-01-30T13:49:57.240Z,45.90
2023-01-30T13:52:28.294Z,45.55
2023-01-30T13:54:59.548Z,46.16
2023-01-30T13:57:33.438Z,45.56
2023-01-30T14:00:30.382Z,44.89
2023-01-30T14:03:31.861Z,44.88
2023-01-30T14:06:13.171Z,45.07
2023-01-30T14:08:49.199Z,45.47
2023-01-30T14:11:45.893Z,45.44
2023-01-30T14:14:32.831Z,45.51
2023-01-30T14:17:14.276Z,45.95
2023-01-30T14:19:43.836Z,45.36
2023-01-30T14:22:23.745Z,45.33
2023-01-30T14:25:24.570Z,45.70
2023-01-30T14:27:52.975Z,45.67
2023-01-30T14:30:37.797Z,45.97
2023-01-30T14:33:31.803Z,45.78
2023-01-30T14:36:33.401Z,45.63
2023-01-30T14:39:34.310Z,45.72
2023-01-30T14:42:21.487Z,45.68
2023-01-30T14:44:59.688Z,45.88
2023-01-30T14:47:34.382Z,45.98
2023-01-30T14:50:19.101Z,45.79
2023-01-30T14:52:49.538Z,46.13
2023-01-30T14:55:20.178Z,46.33
2023-01-30T14:57:54.574Z,46.35
2023-01-30T15:00:25.932Z,46.22
2023-01-30T15:02:54.965Z,46.21
2023-01-30T15:05:29.328Z,46.85
2023-01-30T15:07:58.273Z,46.97
2023-01-30T15:10:36.089Z,47.02
2023-01-30T15:13:20.129Z,46.88
2023-01-30T15:15:56.404Z,46.89
2023-01-30T15:18:42.171Z,46.95
2023-01-30T15:21:44.265Z,46.83
2023-01-30T15:24:30.818Z,47.14
2023-01-30T15:27:01.341Z,47.40
2023-01-30T15:30:33.431Z,46.47
2023-01-30T15:33:31.909Z,46.77
2023-01-30T15:36:55.470Z,46.91
2023-01-30T15:40:41.560Z,47.34
2023-01-30T15:43:24.085Z,47.50
2023-01-30T15:46:02.370Z,47.25
2023-01-30T15:49:07.395Z,47.80
2023-01-30T15:51:37.924Z,47.43
2023-01-30T15:54:10.519Z,47.70
2023-01-30T15:56:38.561Z,47.58
2023-01-30T15:59:06.598Z,47.72
2023-01-30T16:01:34.654Z,47.52
2023-01-30T16:04:07.893Z,48.11
2023-01-30T16:06:37.963Z,48.49
2023-01-30T16:09:17.448Z,47.80
2023-01-30T16:11:45.743Z,48.33
2023-01-30T16:14:15.036Z,48.35
2023-01-30T16:16:50.561Z,48.03
2023-01-30T16:19:38.014Z,48.19
2023-01-30T16:22:07.305Z,48.57
2023-01-30T16:24:38.003Z,48.44
2023-01-30T16:27:08.482Z,48.34
2023-01-30T16:29:48.526Z,48.41
2023-01-30T16:32:18.467Z,48.57
2023-01-30T16:34:47.731Z,48.59
2023-01-30T16:37:26.358Z,48.63
2023-01-30T16:40:10.180Z,48.71
2023-01-30T16:42:38.360Z,48.87
2023-01-30T16:45:40.394Z,49.22
2023-01-30T16:48:24.477Z,48.90
2023-01-30T16:51:11.712Z,49.10
2023-01-30T16:53:40.097Z,49.31
2023-01-30T16:56:11.394Z,49.17
2023-01-30T16:58:41.379Z,49.18
2023-01-30T17:01:10.008Z,49.04
2023-01-30T17:03:39.338Z,49.25
2023-01-30T17:06:12.741Z,49.94
2023-01-30T17:08:49.159Z,49.51
2023-01-30T17:11:33.617Z,49.96
2023-01-30T17:14:18.797Z,49.74
2023-01-30T17:16:47.265Z,49.93
2023-01-30T17:19:15.489Z,50.04
2023-01-30T17:21:45.656Z,49.74
2023-01-30T17:24:15.439Z,50.44
2023-01-30T17:26:45.339Z,50.14
2023-01-30T17:29:23.435Z,50.74
2023-01-30T17:31:52.731Z,50.83
2023-01-30T17:34:47.746Z,50.34
2023-01-30T17:37:20.231Z,50.63
2023-01-30T17:39:48.435Z,50.43
2023-01-30T17:42:34.332Z,50.53
2023-01-30T17:45:02.862Z,50.10
2023-01-30T17:51:46.582Z,50.65
2023-01-30T17:57:25.186Z,51.26
2023-01-30T18:05:41.047Z,50.52
2023-01-30T18:08:08.724Z,50.72
2023-01-30T18:10:36.380Z,51.37
2023-01-30T18:13:04.116Z,50.65
2023-01-30T18:15:33.179Z,50.62
2023-01-30T18:18:00.867Z,50.80
2023-01-30T18:20:28.706Z,51.04
2023-01-30T18:22:56.396Z,51.05
2023-01-30T18:25:24.056Z,50.65
2023-01-30T18:27:51.855Z,50.81
2023-01-30T18:30:20.393Z,50.91
2023-01-30T18:32:53.380Z,51.03
2023-01-30T18:35:22.069Z,51.30
2023-01-30T18:37:50.532Z,51.19
2023-01-30T18:40:19.479Z,50.81
2023-01-30T18:42:47.340Z,51.01
2023-01-30T18:45:15.091Z,51.41
2023-01-30T18:47:42.827Z,50.84
2023-01-30T18:50:12.354Z,51.68
2023-01-30T18:52:40.053Z,50.65
2023-01-30T18:55:08.471Z,51.40
2023-01-30T18:57:36.155Z,51.07
2023-01-30T19:00:04.490Z,50.61
2023-01-30T19:02:32.282Z,51.54
2023-01-30T19:05:02.248Z,51.24
2023-01-30T19:07:31.267Z,50.76
2023-01-30T19:09:59.469Z,50.54
2023-01-30T19:12:44.769Z,51.59
2023-01-30T19:15:12.446Z,51.35
2023-01-30T19:17:40.190Z,50.91
2023-01-30T19:20:11.047Z,51.94
2023-01-30T19:22:40.372Z,51.02
2023-01-30T19:25:09.058Z,51.13
2023-01-30T19:27:38.309Z,51.34
2023-01-30T19:30:07.247Z,51.02
2023-01-30T19:32:35.304Z,50.98
2023-01-30T19:35:03.034Z,52.10
2023-01-30T19:37:30.817Z,51.59
2023-01-30T19:39:59.897Z,51.94
2023-01-30T19:42:27.727Z,51.22
2023-01-30T19:44:55.451Z,51.65
2023-01-30T19:47:23.330Z,52.00
2023-01-30T19:49:51.124Z,52.13
2023-01-30T19:52:18.809Z,52.59
2023-01-30T19:54:47.633Z,52.14
2023-01-30T19:57:16.780Z,52.17
2023-01-30T19:59:45.235Z,52.29
2023-01-30T20:02:13.482Z,52.55
2023-01-30T20:04:41.329Z,52.57
2023-01-30T20:07:09.171Z,53.31
2023-01-30T20:09:36.995Z,52.24
2023-01-30T20:12:04.936Z,53.26
2023-01-30T20:14:34.202Z,52.79
2023-01-30T20:17:01.874Z,52.33
2023-01-30T20:19:29.547Z,53.26
2023-01-30T20:21:57.345Z,53.56
2023-01-30T20:24:25.013Z,52.89
2023-01-30T20:26:52.790Z,52.81
2023-01-30T20:29:20.503Z,52.60
2023-01-30T20:31:49.724Z,53.03
2023-01-30T20:34:18.080Z,53.11
2023-01-30T20:36:45.807Z,53.54
2023-01-30T20:39:14.097Z,52.84
2023-01-30T20:41:41.886Z,52.74
2023-01-30T20:44:11.472Z,52.82
2023-01-30T20:46:41.433Z,52.42
2023-01-30T20:49:13.008Z,52.49
2023-01-30T20:51:41.823Z,53.80
2023-01-30T20:54:10.411Z,53.31
2023-01-30T20:56:42.929Z,52.86
2023-01-30T20:59:11.067Z,53.48
2023-01-30T21:01:39.419Z,52.79
2023-01-30T21:04:07.929Z,53.15
2023-01-30T21:06:41.994Z,54.06
2023-01-30T21:09:14.023Z,53.41
2023-01-30T21:11:41.783Z,53.73
2023-01-30T21:14:09.450Z,54.12
2023-01-30T21:16:37.381Z,53.21
2023-01-30T21:19:06.461Z,53.51
2023-01-30T21:21:35.411Z,54.29
2023-01-30T21:24:05.872Z,54.17
2023-01-30T21:26:34.712Z,53.61
2023-01-30T21:29:02.455Z,54.43
2023-01-30T21:31:31.338Z,54.44
2023-01-30T21:33:59.756Z,54.00
2023-01-30T21:36:27.807Z,53.83
2023-01-30T21:39:13.200Z,54.56
2023-01-30T21:41:59.820Z,54.51
2023-01-30T21:44:28.843Z,54.09
2023-01-30T21:46:56.908Z,54.61
2023-01-30T21:49:26.506Z,54.38
2023-01-30T21:51:54.337Z,54.25
2023-01-30T21:54:22.236Z,54.77
2023-01-30T21:56:51.411Z,54.73
2023-01-30T21:59:19.156Z,54.98
2023-01-30T22:01:46.931Z,54.73
2023-01-30T22:04:15.664Z,55.52
2023-01-30T22:06:43.629Z,55.55
2023-01-30T22:09:13.701Z,55.63
2023-01-30T22:11:41.375Z,54.83
2023-01-30T22:14:13.119Z,54.79
2023-01-30T22:16:40.788Z,55.28
2023-01-30T22:19:08.584Z,55.01
2023-01-30T22:21:37.446Z,54.40
2023-01-30T22:24:07.391Z,55.32
2023-01-30T22:26:35.216Z,55.36
2023-01-30T22:29:03.763Z,55.15
2023-01-30T22:31:34.588Z,54.62
2023-01-30T22:34:02.539Z,54.70
2023-01-30T22:36:31.590Z,54.82
2023-01-30T22:38:59.273Z,55.08
2023-01-30T22:41:27.858Z,54.83
2023-01-30T22:43:56.173Z,55.24
2023-01-30T22:46:24.750Z,54.44
2023-01-30T22:48:54.097Z,54.39
2023-01-30T22:51:23.079Z,54.93
2023-01-30T22:53:51.421Z,54.20
2023-01-30T22:56:21.041Z,54.95
2023-01-30T22:58:48.769Z,54.07
2023-01-30T23:01:18.148Z,54.10
2023-01-30T23:03:46.570Z,54.31
2023-01-30T23:06:16.561Z,53.63
2023-01-30T23:08:45.266Z,54.95
2023-01-30T23:11:14.260Z,54.67
2023-01-30T23:13:42.128Z,54.04
2023-01-30T23:16:09.860Z,54.71
2023-01-30T23:18:55.463Z,54.64
2023-01-30T23:21:24.813Z,54.74
2023-01-30T23:23:53.050Z,53.90
2023-01-30T23:26:21.036Z,54.37
2023-01-30T23:28:48.986Z,53.88
2023-01-30T23:31:17.803Z,54.60
2023-01-30T23:33:45.611Z,54.17
2023-01-30T23:36:14.412Z,54.65
2023-01-30T23:38:43.720Z,54.28
2023-01-30T23:41:12.872Z,54.11
2023-01-30T23:43:40.990Z,54.05
2023-01-30T23:46:13.177Z,54.35
2023-01-30T23:48:41.014Z,54.30
2023-01-30T23:51:09.567Z,54.82
2023-01-30T23:53:37.933Z,54.74
2023-01-30T23:56:08.277Z,54.87
2023-01-30T23:58:36.502Z,54.55
